Nearby METAR Reports

 

KOAK - Oakland, California, USA
Distance from station: SSW 6mi, 9km
Updated: Fri, 23-Jun-2017 4:53am PDT
Overcast
Overcast
 Wind from NW
Wind: NW 7 mph , 11 km/h
Temperature: 59°F , 15°C
Dew Point: 57°F , 14°C
Humidity: 94%
Barometer: 29.85 inHg , 1010.8 hPa
Clouds: Overcast
Visibility: 10 miles , 16 km
Cloud details: Overcast 500 ft
2017/06/23 11:53 KOAK 231153Z 32006KT 10SM OVC005 15/14 A2985 RMK AO2 SLP108 T01500139 10172 20150 53008
KHWD - Hayward, California, USA
Distance from station: SSE 8mi, 12km
Updated: Fri, 23-Jun-2017 4:54am PDT
Clear
Clear
 Wind from NW
Wind: NW 7 mph , 11 km/h
Temperature: 59°F , 15°C
Dew Point: 54°F , 12°C
Humidity: 82%
Barometer: 29.85 inHg , 1010.8 hPa
Clouds: Clear
Visibility: 10 miles , 16 km
2017/06/23 11:54 KHWD 231154Z AUTO 31006KT 10SM CLR 15/12 A2985 RMK AO2 SLP115 T01500117 10194 20150 53009
KSFO - San Francisco, California, USA
Distance from station: SW 15mi, 25km
Updated: Fri, 23-Jun-2017 4:56am PDT
Few Clouds
Few Clouds
 Wind from WNW
Wind: WNW 5 mph , 7 km/h
Temperature: 57°F , 14°C
Dew Point: 54°F , 12°C
Humidity: 88%
Barometer: 29.85 inHg , 1010.8 hPa
Clouds: Few Clouds
Visibility: 10 miles , 16 km
Cloud details: Few Clouds 1500 ft
2017/06/23 11:56 KSFO 231156Z 29004KT 10SM FEW015 14/12 A2985 RMK AO2 SLP107 T01440122
 
KCCR - Concord, California, USA
Distance from station: NNE 17mi, 27km
Updated: Fri, 23-Jun-2017 4:53am PDT
Clear
Clear
 Wind from WNW
Wind: WNW 5 mph , 7 km/h
Temperature: 64°F , 18°C
Dew Point: 55°F , 13°C
Humidity: 73%
Barometer: 29.82 inHg , 1009.8 hPa
Clouds: Clear
Visibility: 10 miles , 16 km
2017/06/23 11:53 KCCR 231153Z AUTO 29004KT 10SM CLR 18/13 A2982 RMK AO2 SLP082 T01780128 10239 20178 53009
KSQL - San Carlos Airpo, California, USA
Distance from station: SSW 18mi, 29km
Updated: Fri, 23-Jun-2017 4:55am PDT
Few Clouds
Few Clouds
 Wind from N
Wind: N 3 mph , 6 km/h
Temperature: 61°F , 16°C
Dew Point: 57°F , 14°C
Humidity: 88%
Barometer: 29.85 inHg , 1010.8 hPa
Clouds: Few Clouds
Visibility: 10 miles , 16 km
Cloud details: Few Clouds 1300 ft
2017/06/23 11:55 KSQL 231155Z AUTO 36003KT 10SM FEW013 16/14 A2985 RMK AO2
KLVK - Livermore, California, USA
Distance from station: ESE 20mi, 31km
Updated: Fri, 23-Jun-2017 4:53am PDT
Clear
Clear
 Wind from WSW
Wind: WSW 5 mph , 7 km/h
Temperature: 64°F , 18°C
Dew Point: 55°F , 13°C
Humidity: 73%
Barometer: 29.82 inHg , 1009.8 hPa
Clouds: Clear
Visibility: 10 miles , 16 km
2017/06/23 11:53 KLVK 231153Z 25004KT 10SM CLR 18/13 A2982 RMK AO2 SLP094 T01830133 10228 20183 53009
 
KPAO - Palo Alto, California, USA
Distance from station: S 21mi, 34km
Updated: Thu, 22-Jun-2017 8:47pm PDT
NOT Current
Clear
Clear
 Wind from NNW
Wind: NNW 17 mph , 28 km/h
Temperature: 68°F , 20°C
Dew Point: 63°F , 17°C
Humidity: 83%
Clouds: Clear
Visibility: 10 miles , 16 km
2017/06/23 03:47 KPAO 230347Z 33015KT 10SM SKC 20/17 A297 RMK LAST
KHAF - Half Moon Bay, California, USA
Distance from station: SW 25mi, 41km
Updated: Thu, 22-Jun-2017 6:25pm PDT
NOT Current
Clear
Clear
 Wind from SSE
Wind: SSE 12 mph , 19 km/h
Temperature: 61°F , 16°C
Dew Point: 55°F , 13°C
Humidity: 83%
Barometer: 29.81 inHg , 1009.5 hPa
Clouds: Clear
Visibility: 9 miles , 14 km
2017/06/23 01:25 KHAF 230125Z AUTO 16010KT 9SM CLR 16/13 A2981 RMK AO2
KNUQ - Moffett Nas/Mtn, California, USA
Distance from station: SSE 26mi, 42km
Updated: Fri, 23-Jun-2017 4:56am PDT
Few Clouds
Few Clouds
 Wind from WNW
Wind: WNW 5 mph , 7 km/h
Temperature: 63°F , 17°C
Dew Point: 61°F , 16°C
Humidity: 94%
Barometer: 29.85 inHg , 1010.8 hPa
Clouds: Few Clouds
Visibility: 10 miles , 16 km
Cloud details: Few Clouds 900 ft
2017/06/23 11:56 KNUQ 231156Z 29004KT 10SM FEW009 17/16 A2985 RMK AO2 SLP111 T01720156 10194 20167 53008
 
KAPC - Napa, California, USA
Distance from station: NNW 30mi, 49km
Updated: Fri, 23-Jun-2017 4:54am PDT
Clear
Clear
 Wind from calm
Wind: Calm
Temperature: 63°F , 17°C
Dew Point: 55°F , 13°C
Humidity: 77%
Barometer: 29.84 inHg , 1010.5 hPa
Clouds: Clear
Visibility: 9 miles , 14 km
2017/06/23 11:54 KAPC 231154Z AUTO 00000KT 9SM CLR 17/13 A2984 RMK AO2 SLP094 T01670133 10194 20156 53008
KSJC - San Jose, California, USA
Distance from station: SSE 31mi, 50km
Updated: Fri, 23-Jun-2017 4:53am PDT
Clear
Clear
 Wind from SSE
Wind: SSE 5 mph , 7 km/h
Temperature: 63°F , 17°C
Dew Point: 55°F , 13°C
Humidity: 77%
Barometer: 29.84 inHg , 1010.5 hPa
Clouds: Clear
Visibility: 10 miles , 16 km
2017/06/23 11:53 KSJC 231153Z AUTO 15004KT 10SM CLR 17/13 A2984 RMK AO2 SLP106 T01720133 10206 20172 53009
KDVO - Novato/Gnoss Fld, California, USA
Distance from station: NW 34mi, 54km
Updated: Fri, 23-Jun-2017 4:55am PDT

 Wind from N
Wind: N 8 mph , 13 km/h
Temperature: 57°F , 14°C
Dew Point: 55°F , 13°C
Humidity: 94%
Barometer: 29.85 inHg , 1010.8 hPa
Visibility: 10 miles , 16 km
2017/06/23 11:55 KDVO 231155Z AUTO 36007KT 10SM 14/13 A2985 RMK AO2
 
KRHV - San Jose/Reid, California, USA
Distance from station: SSE 37mi, 59km
Updated: Thu, 22-Jun-2017 9:47pm PDT
NOT Current
Clear
Clear
 Wind from calm
Wind: Calm
Temperature: 73°F , 23°C
Dew Point: 57°F , 14°C
Humidity: 57%
Barometer: 29.81 inHg , 1009.5 hPa
Clouds: Clear
Visibility: 10 miles , 16 km
2017/06/23 04:47 KRHV 230447Z 00000KT 10SM SKC 23/14 A2981 RMK LAST
KSUU - Travis Afb/Fairf, California, USA
Distance from station: NNE 37mi, 59km
Updated: Fri, 23-Jun-2017 3:58am PDT
Clear
Clear
 Wind from SW
Wind: SW 23 mph , 37 km/h
Temperature: 64°F , 18°C
Dew Point: 55°F , 13°C
Humidity: 73%
Barometer: 29.72 inHg , 1006.4 hPa
Clouds: Clear
Visibility: 10 miles , 16 km
2017/06/23 10:58 KSUU 231058Z AUTO 23020KT 10SM CLR 18/13 A2972 RMK AO2 PK WND 23028/26 SLP070 T01770134 $
KO69 - Petaluma, California, USA
Distance from station: NW 41mi, 66km
Updated: Fri, 23-Jun-2017 4:35am PDT
Overcast
Overcast
 Wind from WNW
Wind: WNW 7 mph , 11 km/h
Temperature: 55°F , 13°C
Dew Point: 55°F , 13°C
Humidity: 100%
Barometer: 29.85 inHg , 1010.8 hPa
Clouds: Overcast
Visibility: 10 miles , 16 km
Cloud details: Overcast 400 ft
2017/06/23 11:35 KO69 231135Z AUTO 30006KT 10SM OVC004 13/13 A2985 RMK A01
 
KVCB - Vacaville, California, USA
Distance from station: NNE 44mi, 71km
Updated: Fri, 23-Jun-2017 4:53am PDT
Clear
Clear
 Wind from SSW
Wind: SSW 6 mph , 9 km/h
Temperature: 75°F , 24°C
Dew Point: 55°F , 13°C
Humidity: 50%
Barometer: 29.75 inHg , 1007.5 hPa
Clouds: Clear
Visibility: 10 miles , 16 km
2017/06/23 11:53 KVCB 231153Z AUTO 21005KT 10SM CLR 24/13 A2975 RMK AO2 SLP073 T02390133 10311 20233 53008